createdAt,value
2022-08-07T00:00:25.328Z,3.85
2022-08-07T00:02:53.639Z,3.92
2022-08-07T00:05:23.800Z,3.95
2022-08-07T00:07:59.573Z,3.47
2022-08-07T00:10:30.605Z,3.63
2022-08-07T00:13:01.473Z,3.70
2022-08-07T00:15:38.123Z,3.90
2022-08-07T00:18:18.702Z,3.17
2022-08-07T00:20:49.216Z,3.60
2022-08-07T00:23:17.037Z,3.40
2022-08-07T00:25:58.873Z,3.08
2022-08-07T00:28:33.723Z,3.20
2022-08-07T00:31:04.377Z,3.17
2022-08-07T00:33:34.550Z,3.58
2022-08-07T00:36:03.167Z,3.30
2022-08-07T00:38:31.064Z,3.28
2022-08-07T00:41:01.168Z,2.80
2022-08-07T00:43:58.892Z,3.08
2022-08-07T00:46:16.702Z,3.03
2022-08-07T00:48:45.431Z,3.35
2022-08-07T00:51:17.884Z,2.88
2022-08-07T00:53:50.689Z,2.92
2022-08-07T00:56:30.247Z,3.58
2022-08-07T00:59:01.893Z,3.47
2022-08-07T01:01:41.337Z,3.13
2022-08-07T01:04:12.205Z,2.63
2022-08-07T01:06:52.186Z,2.67
2022-08-07T01:10:05.182Z,3.42
2022-08-07T01:12:29.582Z,2.80
2022-08-07T01:15:01.427Z,2.65
2022-08-07T01:17:31.906Z,2.83
2022-08-07T01:20:02.488Z,2.83
2022-08-07T01:22:32.641Z,2.63
2022-08-07T01:25:00.711Z,2.60
2022-08-07T01:27:32.781Z,3.03
2022-08-07T01:30:00.688Z,2.70
2022-08-07T01:32:28.719Z,2.63
2022-08-07T01:34:57.255Z,2.63
2022-08-07T01:37:25.007Z,2.50
2022-08-07T01:39:54.384Z,2.45
2022-08-07T01:42:39.523Z,2.45
2022-08-07T01:45:17.770Z,2.15
2022-08-07T01:48:20.311Z,2.20
2022-08-07T01:50:37.250Z,2.67
2022-08-07T01:53:09.120Z,2.10
2022-08-07T01:55:40.555Z,2.35
2022-08-07T01:58:29.193Z,2.03
2022-08-07T02:01:09.820Z,2.00
2022-08-07T02:03:51.352Z,1.88
2022-08-07T02:06:31.424Z,2.03
2022-08-07T02:09:00.892Z,2.00
2022-08-07T02:12:03.572Z,2.13
2022-08-07T02:14:36.659Z,1.90
2022-08-07T02:17:09.044Z,2.00
2022-08-07T02:20:04.452Z,2.55
2022-08-07T02:22:26.950Z,1.85
2022-08-07T02:24:56.692Z,2.25
2022-08-07T02:27:27.369Z,2.10
2022-08-07T02:30:03.934Z,2.17
2022-08-07T02:32:36.352Z,2.85
2022-08-07T02:35:09.192Z,2.20
2022-08-07T02:37:44.163Z,2.35
2022-08-07T02:40:30.707Z,2.45
2022-08-07T02:43:01.310Z,2.60
2022-08-07T02:45:58.069Z,2.05
2022-08-07T02:48:26.855Z,2.13
2022-08-07T02:50:56.311Z,3.42
2022-08-07T02:53:27.459Z,2.15
2022-08-07T02:56:02.963Z,2.10
2022-08-07T02:58:34.223Z,2.20
2022-08-07T03:01:03.408Z,1.90
2022-08-07T03:03:50.209Z,2.10
2022-08-07T03:06:32.066Z,1.63
2022-08-07T03:09:01.727Z,1.77
2022-08-07T03:11:29.584Z,2.08
2022-08-07T03:14:03.399Z,1.88
2022-08-07T03:16:31.489Z,2.00
2022-08-07T03:18:59.314Z,1.70
2022-08-07T03:21:27.635Z,1.67
2022-08-07T03:24:18.200Z,1.63
2022-08-07T03:26:58.544Z,1.60
2022-08-07T03:29:28.631Z,1.60
2022-08-07T03:31:56.973Z,1.63
2022-08-07T03:34:27.299Z,1.52
2022-08-07T03:36:55.257Z,1.65
2022-08-07T03:39:59.373Z,1.70
2022-08-07T03:42:13.215Z,1.80
2022-08-07T03:44:42.557Z,1.52
2022-08-07T03:47:14.932Z,1.70
2022-08-07T03:49:47.644Z,1.80
2022-08-07T03:52:26.120Z,1.65
2022-08-07T03:54:57.129Z,1.50
2022-08-07T03:58:34.143Z,2.10
2022-08-07T04:00:16.165Z,1.50
2022-08-07T04:02:47.183Z,1.80
2022-08-07T04:05:15.108Z,1.52
2022-08-07T04:07:45.651Z,1.70
2022-08-07T04:10:19.482Z,1.80
2022-08-07T04:12:47.597Z,1.60
2022-08-07T04:15:16.944Z,1.85
2022-08-07T04:18:31.988Z,1.52
2022-08-07T04:20:35.085Z,1.90
2022-08-07T04:23:06.421Z,1.60
2022-08-07T04:25:36.065Z,1.67
2022-08-07T04:28:08.069Z,1.30
2022-08-07T04:30:43.675Z,1.58
2022-08-07T04:33:23.549Z,1.38
2022-08-07T04:35:51.445Z,1.60
2022-08-07T04:40:52.218Z,1.40
2022-08-07T04:43:22.020Z,1.25
2022-08-07T04:46:25.998Z,1.60
2022-08-07T04:49:02.470Z,1.55
2022-08-07T04:51:45.969Z,1.35
2022-08-07T04:54:19.183Z,1.45
2022-08-07T04:58:11.259Z,1.40
2022-08-07T05:00:12.593Z,1.52
2022-08-07T05:02:34.658Z,1.60
2022-08-07T05:07:37.116Z,1.40
2022-08-07T05:10:18.730Z,1.60
2022-08-07T05:12:52.953Z,1.90
2022-08-07T05:15:25.336Z,1.48
2022-08-07T05:17:56.623Z,1.30
2022-08-07T05:20:26.999Z,1.70
2022-08-07T05:22:57.691Z,1.38
2022-08-07T05:25:54.635Z,1.50
2022-08-07T05:28:20.639Z,1.15
2022-08-07T05:30:52.347Z,1.30
2022-08-07T05:33:22.191Z,1.10
2022-08-07T05:35:50.614Z,1.30
2022-08-07T05:38:59.485Z,1.25
2022-08-07T05:41:14.644Z,1.38
2022-08-07T05:44:08.092Z,1.20
2022-08-07T05:46:32.796Z,1.27
2022-08-07T05:49:01.796Z,1.30
2022-08-07T05:51:40.585Z,1.20
2022-08-07T05:54:29.279Z,1.20
2022-08-07T05:56:56.174Z,1.23
2022-08-07T05:59:24.436Z,1.30
2022-08-07T06:01:52.259Z,1.30
2022-08-07T06:04:22.381Z,1.20
2022-08-07T06:07:03.667Z,1.20
2022-08-07T06:10:04.106Z,1.40
2022-08-07T06:12:21.170Z,1.13
2022-08-07T06:15:02.968Z,1.10
2022-08-07T06:17:38.000Z,1.02
2022-08-07T06:20:12.821Z,1.15
2022-08-07T06:23:09.411Z,1.30
2022-08-07T06:25:54.371Z,1.00
2022-08-07T06:28:27.651Z,1.10
2022-08-07T06:30:56.094Z,1.02
2022-08-07T06:33:23.648Z,1.10
2022-08-07T06:36:06.424Z,1.02
2022-08-07T06:38:59.273Z,1.20
2022-08-07T06:42:00.640Z,1.00
2022-08-07T06:44:17.807Z,1.00
2022-08-07T06:46:53.725Z,1.10
2022-08-07T06:49:34.253Z,0.80
2022-08-07T06:52:31.778Z,1.08
2022-08-07T06:55:31.841Z,1.10
2022-08-07T06:57:56.419Z,1.10
2022-08-07T07:00:25.660Z,1.17
2022-08-07T07:02:58.176Z,0.95
2022-08-07T07:06:03.164Z,1.00
2022-08-07T07:08:18.860Z,1.10
2022-08-07T07:10:56.710Z,0.95
2022-08-07T07:13:40.619Z,1.52
2022-08-07T07:16:19.572Z,1.10
2022-08-07T07:18:50.948Z,0.90
2022-08-07T07:21:20.095Z,1.02
2022-08-07T07:24:05.957Z,1.02
2022-08-07T07:26:38.195Z,0.90
2022-08-07T07:29:38.710Z,1.10
2022-08-07T07:34:30.834Z,0.93
2022-08-07T07:37:14.249Z,1.08
2022-08-07T07:39:54.469Z,1.00
2022-08-07T07:42:32.470Z,1.13
2022-08-07T07:45:02.063Z,1.10
2022-08-07T07:47:30.379Z,1.08
2022-08-07T07:50:36.313Z,0.90
2022-08-07T07:53:20.258Z,1.00
2022-08-07T07:55:54.735Z,1.13
2022-08-07T07:58:25.739Z,1.15
2022-08-07T08:00:56.055Z,1.38
2022-08-07T08:04:05.942Z,1.00
2022-08-07T08:06:13.458Z,1.50
2022-08-07T08:08:42.760Z,1.00
2022-08-07T08:11:16.631Z,0.85
2022-08-07T08:13:54.592Z,0.80
2022-08-07T08:16:25.677Z,0.82
2022-08-07T08:18:55.660Z,0.80
2022-08-07T08:22:00.567Z,0.85
2022-08-07T08:24:47.513Z,0.98
2022-08-07T08:27:26.049Z,0.90
2022-08-07T08:30:03.951Z,0.80
2022-08-07T08:32:38.538Z,0.80
2022-08-07T08:35:07.738Z,0.90
2022-08-07T08:38:00.842Z,0.85
2022-08-07T08:40:28.797Z,0.70
2022-08-07T08:43:01.852Z,0.98
2022-08-07T08:45:58.316Z,1.10
2022-08-07T08:48:32.308Z,0.85
2022-08-07T08:51:03.306Z,1.13
2022-08-07T08:53:45.878Z,1.10
2022-08-07T08:56:17.402Z,1.08
2022-08-07T08:58:54.300Z,1.10
2022-08-07T09:01:29.847Z,1.02
2022-08-07T09:04:11.208Z,1.00
2022-08-07T09:06:47.844Z,1.00
2022-08-07T09:09:30.232Z,0.90
2022-08-07T09:12:30.237Z,0.90
2022-08-07T09:16:25.688Z,0.90
2022-08-07T09:17:59.776Z,0.90
2022-08-07T09:20:35.924Z,1.00
2022-08-07T09:24:33.797Z,0.90
2022-08-07T09:26:03.364Z,1.00
2022-08-07T09:30:05.932Z,0.88
2022-08-07T09:31:38.375Z,0.95
2022-08-07T09:34:14.500Z,0.90
2022-08-07T09:36:49.686Z,0.80
2022-08-07T09:39:53.768Z,1.00
2022-08-07T09:42:22.910Z,1.08
2022-08-07T09:47:26.254Z,1.00
2022-08-07T09:48:01.321Z,0.80
2022-08-07T09:50:36.415Z,1.30
2022-08-07T09:53:05.491Z,0.73
2022-08-07T09:56:03.122Z,0.68
2022-08-07T09:58:34.653Z,0.95
2022-08-07T10:01:08.296Z,0.90
2022-08-07T10:04:05.963Z,0.90
2022-08-07T10:06:49.104Z,1.00
2022-08-07T10:09:59.361Z,0.95
2022-08-07T10:12:41.862Z,0.82
2022-08-07T10:15:28.801Z,0.93
2022-08-07T10:18:08.567Z,0.82
2022-08-07T10:20:44.411Z,1.00
2022-08-07T10:24:05.379Z,0.90
2022-08-07T10:26:25.433Z,1.10
2022-08-07T10:29:05.559Z,0.90
2022-08-07T10:31:42.976Z,1.00
2022-08-07T10:34:27.365Z,0.90
2022-08-07T10:37:05.767Z,1.15
2022-08-07T10:40:02.881Z,0.98
2022-08-07T10:42:37.154Z,1.00
2022-08-07T10:45:11.799Z,0.90
2022-08-07T10:47:51.353Z,0.80
2022-08-07T10:50:25.867Z,1.20
2022-08-07T10:52:58.027Z,0.73
2022-08-07T10:55:38.138Z,0.75
2022-08-07T10:58:17.547Z,0.90
2022-08-07T11:00:56.715Z,0.88
2022-08-07T11:03:28.140Z,0.63
2022-08-07T11:06:09.479Z,0.80
2022-08-07T11:08:53.821Z,0.93
2022-08-07T11:11:22.817Z,1.10
2022-08-07T11:16:42.252Z,0.70
2022-08-07T11:19:15.088Z,0.80
2022-08-07T11:21:53.711Z,1.10
2022-08-07T11:24:25.093Z,1.10
2022-08-07T11:26:56.790Z,0.82
2022-08-07T11:29:41.883Z,0.77
2022-08-07T11:32:13.083Z,0.80
2022-08-07T11:34:43.121Z,0.73
2022-08-07T11:37:14.203Z,0.80
2022-08-07T11:40:03.503Z,1.00
2022-08-07T11:42:38.100Z,0.88
2022-08-07T11:45:14.132Z,0.70
2022-08-07T11:47:56.081Z,1.00
2022-08-07T11:50:57.723Z,0.73
2022-08-07T11:53:35.572Z,2.65
2022-08-07T11:56:26.585Z,0.90
2022-08-07T11:59:01.981Z,1.30
2022-08-07T12:02:00.119Z,0.93
2022-08-07T12:04:35.164Z,0.93
2022-08-07T12:07:20.390Z,0.90
2022-08-07T12:09:57.213Z,0.80
2022-08-07T12:12:26.925Z,0.63
2022-08-07T12:15:01.646Z,0.65
2022-08-07T12:17:34.134Z,0.80
2022-08-07T12:20:18.465Z,0.70
2022-08-07T12:23:09.036Z,1.02
2022-08-07T12:26:06.166Z,0.80
2022-08-07T12:28:51.922Z,1.00
2022-08-07T12:33:56.058Z,0.60
2022-08-07T12:36:32.909Z,0.90
2022-08-07T12:39:03.286Z,0.85
2022-08-07T12:41:52.116Z,0.80
2022-08-07T12:44:21.500Z,0.80
2022-08-07T12:46:58.721Z,0.70
2022-08-07T12:49:48.567Z,0.70
2022-08-07T12:52:23.205Z,0.80
2022-08-07T12:55:03.519Z,0.98
2022-08-07T12:57:39.108Z,0.63
2022-08-07T13:00:31.243Z,0.60
2022-08-07T13:03:07.008Z,0.70
2022-08-07T13:06:04.557Z,0.80
2022-08-07T13:08:42.073Z,0.70
2022-08-07T13:11:19.317Z,0.70
2022-08-07T13:13:52.527Z,0.70
2022-08-07T13:16:25.712Z,0.75
2022-08-07T13:18:57.471Z,0.63
2022-08-07T13:21:50.417Z,0.80
2022-08-07T13:24:20.620Z,0.90
2022-08-07T13:26:56.772Z,0.90
2022-08-07T13:29:26.038Z,0.95
2022-08-07T13:31:59.850Z,0.93
2022-08-07T13:34:35.954Z,0.93
2022-08-07T13:40:34.313Z,0.77
2022-08-07T13:42:36.316Z,0.77
2022-08-07T13:46:07.075Z,0.77
2022-08-07T13:48:07.809Z,0.63
2022-08-07T13:50:45.013Z,1.10
2022-08-07T13:53:35.898Z,1.00
2022-08-07T13:56:20.127Z,0.85
2022-08-07T13:59:10.276Z,0.80
2022-08-07T14:01:59.120Z,0.93
2022-08-07T14:04:36.007Z,1.00
2022-08-07T14:07:09.286Z,0.75
2022-08-07T14:10:02.748Z,0.80
2022-08-07T14:12:31.805Z,0.80
2022-08-07T14:18:15.522Z,0.60
2022-08-07T14:20:43.530Z,0.90
2022-08-07T14:23:12.224Z,0.70
2022-08-07T14:25:45.955Z,0.73
2022-08-07T14:28:18.179Z,1.00
2022-08-07T14:30:47.271Z,0.75
2022-08-07T14:36:09.011Z,0.90
2022-08-07T14:38:36.682Z,0.80
2022-08-07T14:41:06.296Z,0.90
2022-08-07T14:43:58.617Z,0.93
2022-08-07T14:46:32.427Z,0.88
2022-08-07T14:49:17.427Z,0.88
2022-08-07T14:52:02.826Z,0.80
2022-08-07T14:57:24.604Z,0.73
2022-08-07T15:02:45.202Z,0.90
2022-08-07T15:05:25.347Z,1.17
2022-08-07T15:07:53.628Z,0.85
2022-08-07T15:10:26.447Z,0.90
2022-08-07T15:15:52.671Z,0.95
2022-08-07T15:21:44.784Z,1.00
2022-08-07T15:26:52.580Z,1.40
2022-08-07T15:30:06.942Z,0.80
2022-08-07T15:32:12.458Z,1.00
2022-08-07T15:38:01.271Z,0.70
2022-08-07T15:43:52.785Z,0.90
2022-08-07T15:46:34.332Z,0.98
2022-08-07T15:49:12.761Z,1.10
2022-08-07T15:54:26.727Z,0.82
2022-08-07T15:56:57.918Z,0.90
2022-08-07T15:59:37.976Z,1.00
2022-08-07T16:02:08.798Z,0.80
2022-08-07T16:04:38.810Z,0.90
2022-08-07T16:08:28.961Z,0.95
2022-08-07T16:10:00.537Z,0.95
2022-08-07T16:12:34.215Z,0.90
2022-08-07T16:15:54.556Z,0.75
2022-08-07T16:18:05.942Z,0.95
2022-08-07T16:21:53.504Z,0.70
2022-08-07T16:23:58.523Z,0.90
2022-08-07T16:26:39.624Z,0.70
2022-08-07T16:30:11.776Z,1.08
2022-08-07T16:32:32.812Z,0.80
2022-08-07T16:35:51.779Z,0.80
2022-08-07T16:38:09.528Z,0.95
2022-08-07T16:41:02.124Z,0.98
2022-08-07T16:44:06.490Z,0.90
2022-08-07T16:47:16.762Z,1.20
2022-08-07T16:50:36.270Z,0.90
2022-08-07T16:54:02.166Z,1.08
2022-08-07T16:56:04.216Z,0.82
2022-08-07T16:59:10.338Z,1.02
2022-08-07T17:01:35.827Z,1.58
2022-08-07T17:04:14.018Z,0.98
2022-08-07T17:07:02.835Z,0.80
2022-08-07T17:10:06.185Z,0.73
2022-08-07T17:12:35.802Z,1.00
2022-08-07T17:15:08.009Z,0.80
2022-08-07T17:17:46.821Z,1.20
2022-08-07T17:20:21.448Z,0.88
2022-08-07T17:22:56.109Z,1.00
2022-08-07T17:25:51.548Z,1.13
2022-08-07T17:28:19.332Z,1.10
2022-08-07T17:30:58.393Z,0.93
2022-08-07T17:34:08.846Z,1.13
2022-08-07T17:36:20.575Z,1.23
2022-08-07T17:38:55.347Z,1.30
2022-08-07T17:42:04.913Z,0.95
2022-08-07T17:44:41.707Z,1.05
2022-08-07T17:47:17.169Z,1.20
2022-08-07T17:50:01.272Z,1.10
2022-08-07T17:52:32.872Z,1.27
2022-08-07T17:55:05.141Z,1.13
2022-08-07T17:57:58.584Z,1.20
2022-08-07T18:00:34.312Z,1.20
2022-08-07T18:03:09.503Z,1.33
2022-08-07T18:06:02.254Z,1.20
2022-08-07T18:08:32.572Z,1.08
2022-08-07T18:12:08.336Z,0.93
2022-08-07T18:13:56.041Z,1.10
2022-08-07T18:16:32.932Z,1.30
2022-08-07T18:21:07.068Z,1.23
2022-08-07T18:22:02.416Z,1.33
2022-08-07T18:27:21.027Z,1.30
2022-08-07T18:30:05.469Z,1.25
2022-08-07T18:32:53.887Z,1.33
2022-08-07T18:35:23.369Z,1.27
2022-08-07T18:38:56.829Z,1.42
2022-08-07T18:41:09.227Z,1.40
2022-08-07T18:43:50.528Z,1.40
2022-08-07T18:46:28.985Z,1.35
2022-08-07T18:50:31.640Z,1.10
2022-08-07T18:52:34.968Z,1.40
2022-08-07T18:54:50.988Z,1.20
2022-08-07T18:57:30.813Z,1.17
2022-08-07T19:00:04.087Z,1.33
2022-08-07T19:02:39.655Z,1.48
2022-08-07T19:05:17.605Z,1.13
2022-08-07T19:07:58.759Z,1.00
2022-08-07T19:10:31.983Z,1.40
2022-08-07T19:13:21.624Z,1.50
2022-08-07T19:16:03.602Z,1.45
2022-08-07T19:18:49.417Z,1.33
2022-08-07T19:21:47.411Z,1.40
2022-08-07T19:24:29.961Z,1.33
2022-08-07T19:28:56.539Z,1.50
2022-08-07T19:31:01.320Z,1.35
2022-08-07T19:32:45.179Z,1.45
2022-08-07T19:35:17.755Z,1.20
2022-08-07T19:37:55.297Z,1.33
2022-08-07T19:40:30.845Z,1.20
2022-08-07T19:43:02.567Z,1.52
2022-08-07T19:46:07.923Z,1.50
2022-08-07T19:48:24.107Z,1.60
2022-08-07T19:50:53.378Z,1.50
2022-08-07T19:54:33.108Z,1.50
2022-08-07T19:56:58.523Z,1.35
2022-08-07T19:59:02.556Z,1.50
2022-08-07T20:01:52.294Z,1.83
2022-08-07T20:04:31.466Z,1.55
2022-08-07T20:07:08.892Z,2.80
2022-08-07T20:10:33.726Z,1.80
2022-08-07T20:12:34.861Z,1.40
2022-08-07T20:15:09.744Z,1.30
2022-08-07T20:18:01.643Z,1.38
2022-08-07T20:20:31.890Z,1.70
2022-08-07T20:23:02.048Z,1.60
2022-08-07T20:25:51.084Z,1.50
2022-08-07T20:28:21.488Z,1.50
2022-08-07T20:31:00.130Z,1.67
2022-08-07T20:33:38.100Z,1.70
2022-08-07T20:36:07.041Z,1.40
2022-08-07T20:38:35.237Z,1.50
2022-08-07T20:41:21.732Z,1.65
2022-08-07T20:43:49.806Z,1.75
2022-08-07T20:46:32.249Z,1.40
2022-08-07T20:49:59.425Z,1.65
2022-08-07T20:51:51.188Z,1.60
2022-08-07T20:54:30.208Z,1.42
2022-08-07T20:57:05.297Z,1.92
2022-08-07T21:00:08.289Z,1.45
2022-08-07T21:02:53.869Z,1.70
2022-08-07T21:05:42.890Z,1.58
2022-08-07T21:08:14.410Z,1.50
2022-08-07T21:10:44.100Z,1.58
2022-08-07T21:13:13.160Z,1.80
2022-08-07T21:15:47.528Z,1.92
2022-08-07T21:18:20.759Z,1.83
2022-08-07T21:20:57.567Z,1.75
2022-08-07T21:23:29.957Z,2.35
2022-08-07T21:26:03.289Z,2.10
2022-08-07T21:28:48.014Z,1.80
2022-08-07T21:31:49.866Z,1.45
2022-08-07T21:34:12.559Z,1.67
2022-08-07T21:36:50.382Z,1.85
2022-08-07T21:39:46.202Z,2.42
2022-08-07T21:42:41.938Z,3.40
2022-08-07T21:46:07.693Z,2.10
2022-08-07T21:48:01.518Z,2.10
2022-08-07T21:50:33.295Z,2.17
2022-08-07T21:53:07.655Z,2.25
2022-08-07T21:55:43.752Z,2.22
2022-08-07T21:58:32.323Z,2.30
2022-08-07T22:01:01.797Z,2.47
2022-08-07T22:03:33.165Z,2.22
2022-08-07T22:06:04.952Z,2.00
2022-08-07T22:08:38.639Z,2.05
2022-08-07T22:11:08.270Z,2.78
2022-08-07T22:13:52.039Z,2.00
2022-08-07T22:16:45.004Z,2.75
2022-08-07T22:19:20.108Z,3.15
2022-08-07T22:22:10.986Z,2.30
2022-08-07T22:25:08.298Z,2.05
2022-08-07T22:28:29.334Z,2.00
2022-08-07T22:30:29.388Z,2.40
2022-08-07T22:33:03.582Z,2.45
2022-08-07T22:35:40.287Z,2.42
2022-08-07T22:38:14.196Z,2.33
2022-08-07T22:40:54.408Z,2.15
2022-08-07T22:43:31.490Z,1.83
2022-08-07T22:46:42.968Z,1.90
2022-08-07T22:49:25.619Z,1.65
2022-08-07T22:52:13.283Z,1.45
2022-08-07T22:54:56.253Z,1.50
2022-08-07T22:57:34.147Z,1.63
2022-08-07T23:00:07.398Z,1.75
2022-08-07T23:02:38.325Z,2.08
2022-08-07T23:06:08.767Z,1.67
2022-08-07T23:08:30.271Z,1.48
2022-08-07T23:11:10.332Z,1.63
2022-08-07T23:14:15.176Z,1.58
2022-08-07T23:16:54.991Z,1.88
2022-08-07T23:19:57.994Z,1.50
2022-08-07T23:22:36.292Z,1.50
2022-08-07T23:25:20.867Z,1.58
2022-08-07T23:28:20.227Z,2.35
2022-08-07T23:34:22.769Z,1.67
2022-08-07T23:36:37.556Z,1.50
2022-08-07T23:39:08.679Z,1.60
2022-08-07T23:41:47.492Z,1.85
2022-08-07T23:44:40.484Z,1.52
2022-08-07T23:47:13.680Z,1.80
2022-08-07T23:50:16.973Z,1.80
2022-08-07T23:53:05.860Z,1.50
2022-08-07T23:55:51.970Z,1.45
2022-08-07T23:58:25.005Z,1.40
